Terminal Aerodrome Forecast
Issued by NWS Cleveland, OH

Home | Current Version | Previous Version | Graphics & Text | Print | Product List | Glossary On
Versions: 1 2 3 4 5 6 7 8 9 10 11 12 13 14 15 16 17
000
FTUS41 KCLE 181044 AAA
TAFCAK
TAF AMD
KCAK 181044Z 1811/1906 21007KT P6SM SCT007
     FM181400 21010KT P6SM SCT012
     FM181530 24010KT P6SM BKN030
     FM181730 26012G20KT P6SM BKN040
     FM181900 26012G22KT P6SM BKN050
     FM182300 26010KT P6SM SCT120=

USA.gov is the U.S. government's official web portal to all federal, state and local government web resources and services.